sensor_id;sensor_type;location;lat;lon;timestamp;P1;durP1;ratioP1;P2;durP2;ratioP2
24801;SDS011;12898;50.520;12.152;2024-03-25T00:00:13;6.37;;;2.97;;
24801;SDS011;12898;50.520;12.152;2024-03-25T00:02:40;6.03;;;2.90;;
24801;SDS011;12898;50.520;12.152;2024-03-25T00:05:07;6.20;;;2.83;;
24801;SDS011;12898;50.520;12.152;2024-03-25T00:07:39;6.07;;;2.73;;
24801;SDS011;12898;50.520;12.152;2024-03-25T00:10:05;3.27;;;2.20;;
24801;SDS011;12898;50.520;12.152;2024-03-25T00:12:33;6.47;;;2.60;;
24801;SDS011;12898;50.520;12.152;2024-03-25T00:15:00;6.43;;;2.60;;
24801;SDS011;12898;50.520;12.152;2024-03-25T00:17:26;5.80;;;2.37;;
24801;SDS011;12898;50.520;12.152;2024-03-25T00:19:52;4.97;;;2.40;;
24801;SDS011;12898;50.520;12.152;2024-03-25T00:22:18;7.20;;;2.40;;
24801;SDS011;12898;50.520;12.152;2024-03-25T00:24:46;5.00;;;2.50;;
24801;SDS011;12898;50.520;12.152;2024-03-25T00:27:13;4.00;;;2.20;;
24801;SDS011;12898;50.520;12.152;2024-03-25T00:29:40;5.17;;;2.20;;
24801;SDS011;12898;50.520;12.152;2024-03-25T00:32:06;2.80;;;1.90;;
24801;SDS011;12898;50.520;12.152;2024-03-25T00:34:32;4.30;;;2.40;;
24801;SDS011;12898;50.520;12.152;2024-03-25T00:36:58;5.60;;;2.07;;
24801;SDS011;12898;50.520;12.152;2024-03-25T00:39:25;7.50;;;2.07;;
24801;SDS011;12898;50.520;12.152;2024-03-25T00:41:52;3.93;;;2.07;;
24801;SDS011;12898;50.520;12.152;2024-03-25T00:44:18;5.77;;;2.00;;
24801;SDS011;12898;50.520;12.152;2024-03-25T00:46:44;3.90;;;2.00;;
24801;SDS011;12898;50.520;12.152;2024-03-25T00:49:11;4.13;;;1.97;;
24801;SDS011;12898;50.520;12.152;2024-03-25T00:51:37;3.53;;;1.90;;
24801;SDS011;12898;50.520;12.152;2024-03-25T00:54:03;3.70;;;1.93;;
24801;SDS011;12898;50.520;12.152;2024-03-25T00:56:30;3.53;;;2.10;;
24801;SDS011;12898;50.520;12.152;2024-03-25T00:58:56;3.00;;;1.90;;
24801;SDS011;12898;50.520;12.152;2024-03-25T01:01:23;4.47;;;2.03;;
24801;SDS011;12898;50.520;12.152;2024-03-25T01:03:49;3.97;;;2.03;;
24801;SDS011;12898;50.520;12.152;2024-03-25T01:06:15;3.60;;;2.30;;
24801;SDS011;12898;50.520;12.152;2024-03-25T01:08:41;4.57;;;2.00;;
24801;SDS011;12898;50.520;12.152;2024-03-25T01:11:06;5.27;;;2.03;;
24801;SDS011;12898;50.520;12.152;2024-03-25T01:13:32;4.57;;;1.87;;
24801;SDS011;12898;50.520;12.152;2024-03-25T01:15:58;3.77;;;1.83;;
24801;SDS011;12898;50.520;12.152;2024-03-25T01:18:24;2.50;;;1.60;;
24801;SDS011;12898;50.520;12.152;2024-03-25T01:20:49;5.33;;;2.17;;
24801;SDS011;12898;50.520;12.152;2024-03-25T01:23:15;2.40;;;1.83;;
24801;SDS011;12898;50.520;12.152;2024-03-25T01:25:41;3.47;;;1.70;;
24801;SDS011;12898;50.520;12.152;2024-03-25T01:28:07;4.57;;;1.83;;
24801;SDS011;12898;50.520;12.152;2024-03-25T01:30:32;3.10;;;1.93;;
24801;SDS011;12898;50.520;12.152;2024-03-25T01:33:00;3.47;;;1.83;;
24801;SDS011;12898;50.520;12.152;2024-03-25T01:35:27;3.70;;;1.60;;
24801;SDS011;12898;50.520;12.152;2024-03-25T01:37:53;3.50;;;1.80;;
24801;SDS011;12898;50.520;12.152;2024-03-25T01:40:19;2.50;;;1.50;;
24801;SDS011;12898;50.520;12.152;2024-03-25T01:42:54;2.20;;;1.60;;
24801;SDS011;12898;50.520;12.152;2024-03-25T01:45:24;7.23;;;2.33;;
24801;SDS011;12898;50.520;12.152;2024-03-25T01:47:52;4.93;;;1.80;;
24801;SDS011;12898;50.520;12.152;2024-03-25T01:50:19;2.57;;;1.67;;
24801;SDS011;12898;50.520;12.152;2024-03-25T01:52:46;4.23;;;1.70;;
24801;SDS011;12898;50.520;12.152;2024-03-25T01:55:15;4.57;;;2.03;;
24801;SDS011;12898;50.520;12.152;2024-03-25T01:57:46;3.73;;;1.90;;
24801;SDS011;12898;50.520;12.152;2024-03-25T02:00:12;6.13;;;1.90;;
24801;SDS011;12898;50.520;12.152;2024-03-25T02:02:41;3.70;;;1.67;;
24801;SDS011;12898;50.520;12.152;2024-03-25T02:05:09;3.63;;;1.90;;
24801;SDS011;12898;50.520;12.152;2024-03-25T02:07:39;4.90;;;1.70;;
24801;SDS011;12898;50.520;12.152;2024-03-25T02:10:07;3.93;;;1.97;;
24801;SDS011;12898;50.520;12.152;2024-03-25T02:12:42;2.30;;;1.70;;
24801;SDS011;12898;50.520;12.152;2024-03-25T02:15:11;5.47;;;2.10;;
24801;SDS011;12898;50.520;12.152;2024-03-25T02:17:40;5.03;;;1.70;;
24801;SDS011;12898;50.520;12.152;2024-03-25T02:20:07;3.63;;;1.80;;
24801;SDS011;12898;50.520;12.152;2024-03-25T02:22:33;3.13;;;1.70;;
24801;SDS011;12898;50.520;12.152;2024-03-25T02:25:01;3.43;;;1.77;;
24801;SDS011;12898;50.520;12.152;2024-03-25T02:27:33;4.60;;;2.03;;
24801;SDS011;12898;50.520;12.152;2024-03-25T02:30:01;3.20;;;1.73;;
24801;SDS011;12898;50.520;12.152;2024-03-25T02:32:39;3.70;;;2.20;;
24801;SDS011;12898;50.520;12.152;2024-03-25T02:35:05;3.30;;;1.73;;
24801;SDS011;12898;50.520;12.152;2024-03-25T02:37:35;2.83;;;1.73;;
24801;SDS011;12898;50.520;12.152;2024-03-25T02:40:09;2.67;;;1.50;;
24801;SDS011;12898;50.520;12.152;2024-03-25T02:42:36;3.13;;;1.50;;
24801;SDS011;12898;50.520;12.152;2024-03-25T02:45:05;2.80;;;1.47;;
24801;SDS011;12898;50.520;12.152;2024-03-25T02:47:31;1.20;;;1.10;;
24801;SDS011;12898;50.520;12.152;2024-03-25T02:49:57;6.13;;;1.60;;
24801;SDS011;12898;50.520;12.152;2024-03-25T02:52:22;3.17;;;1.20;;
24801;SDS011;12898;50.520;12.152;2024-03-25T02:54:49;1.93;;;1.20;;
24801;SDS011;12898;50.520;12.152;2024-03-25T02:57:14;2.80;;;1.30;;
24801;SDS011;12898;50.520;12.152;2024-03-25T02:59:40;1.73;;;1.20;;
24801;SDS011;12898;50.520;12.152;2024-03-25T03:02:06;2.77;;;1.60;;
24801;SDS011;12898;50.520;12.152;2024-03-25T03:04:32;2.77;;;1.30;;
24801;SDS011;12898;50.520;12.152;2024-03-25T03:06:58;2.87;;;1.23;;
24801;SDS011;12898;50.520;12.152;2024-03-25T03:09:23;1.27;;;1.03;;
24801;SDS011;12898;50.520;12.152;2024-03-25T03:11:49;2.93;;;0.90;;
24801;SDS011;12898;50.520;12.152;2024-03-25T03:14:15;2.17;;;1.23;;
24801;SDS011;12898;50.520;12.152;2024-03-25T03:16:40;2.37;;;1.00;;
24801;SDS011;12898;50.520;12.152;2024-03-25T03:19:06;2.33;;;1.17;;
24801;SDS011;12898;50.520;12.152;2024-03-25T03:21:32;2.67;;;1.17;;
24801;SDS011;12898;50.520;12.152;2024-03-25T03:23:58;2.33;;;1.10;;
24801;SDS011;12898;50.520;12.152;2024-03-25T03:26:24;1.30;;;1.10;;
24801;SDS011;12898;50.520;12.152;2024-03-25T03:28:56;2.00;;;1.37;;
24801;SDS011;12898;50.520;12.152;2024-03-25T03:31:22;3.17;;;1.63;;
24801;SDS011;12898;50.520;12.152;2024-03-25T03:33:48;3.83;;;2.30;;
24801;SDS011;12898;50.520;12.152;2024-03-25T03:36:15;3.47;;;1.30;;
24801;SDS011;12898;50.520;12.152;2024-03-25T03:38:42;5.33;;;1.63;;
24801;SDS011;12898;50.520;12.152;2024-03-25T03:41:08;3.97;;;1.40;;
24801;SDS011;12898;50.520;12.152;2024-03-25T03:43:34;3.00;;;1.10;;
24801;SDS011;12898;50.520;12.152;2024-03-25T03:45:59;1.40;;;1.20;;
24801;SDS011;12898;50.520;12.152;2024-03-25T03:48:25;2.20;;;1.60;;
24801;SDS011;12898;50.520;12.152;2024-03-25T03:50:51;2.67;;;1.30;;
24801;SDS011;12898;50.520;12.152;2024-03-25T03:53:16;1.83;;;1.30;;
24801;SDS011;12898;50.520;12.152;2024-03-25T03:55:42;2.93;;;1.53;;
24801;SDS011;12898;50.520;12.152;2024-03-25T03:58:18;3.50;;;1.83;;
24801;SDS011;12898;50.520;12.152;2024-03-25T04:00:44;4.87;;;1.60;;
24801;SDS011;12898;50.520;12.152;2024-03-25T04:03:10;4.10;;;1.70;;
24801;SDS011;12898;50.520;12.152;2024-03-25T04:05:35;3.27;;;1.53;;
24801;SDS011;12898;50.520;12.152;2024-03-25T04:08:01;4.77;;;1.60;;
24801;SDS011;12898;50.520;12.152;2024-03-25T04:10:27;3.63;;;1.90;;
24801;SDS011;12898;50.520;12.152;2024-03-25T04:12:52;3.30;;;1.70;;
24801;SDS011;12898;50.520;12.152;2024-03-25T04:15:18;4.93;;;2.23;;
24801;SDS011;12898;50.520;12.152;2024-03-25T04:17:44;3.13;;;2.10;;
24801;SDS011;12898;50.520;12.152;2024-03-25T04:20:11;5.47;;;2.10;;
24801;SDS011;12898;50.520;12.152;2024-03-25T04:22:40;2.87;;;1.90;;
24801;SDS011;12898;50.520;12.152;2024-03-25T04:25:08;4.80;;;2.00;;
24801;SDS011;12898;50.520;12.152;2024-03-25T04:27:40;3.97;;;2.10;;
24801;SDS011;12898;50.520;12.152;2024-03-25T04:30:07;4.70;;;1.70;;
24801;SDS011;12898;50.520;12.152;2024-03-25T04:32:34;7.10;;;2.40;;
24801;SDS011;12898;50.520;12.152;2024-03-25T04:35:01;6.17;;;2.17;;
24801;SDS011;12898;50.520;12.152;2024-03-25T04:37:28;4.13;;;2.30;;
24801;SDS011;12898;50.520;12.152;2024-03-25T04:39:54;4.57;;;2.17;;
24801;SDS011;12898;50.520;12.152;2024-03-25T04:42:21;5.40;;;2.40;;
24801;SDS011;12898;50.520;12.152;2024-03-25T04:44:47;5.93;;;2.40;;
24801;SDS011;12898;50.520;12.152;2024-03-25T04:47:13;6.17;;;2.60;;
24801;SDS011;12898;50.520;12.152;2024-03-25T04:49:40;5.40;;;2.33;;
24801;SDS011;12898;50.520;12.152;2024-03-25T04:52:09;5.40;;;2.40;;
24801;SDS011;12898;50.520;12.152;2024-03-25T04:54:38;6.20;;;2.77;;
24801;SDS011;12898;50.520;12.152;2024-03-25T04:57:04;8.67;;;2.83;;
24801;SDS011;12898;50.520;12.152;2024-03-25T04:59:31;6.03;;;2.77;;
24801;SDS011;12898;50.520;12.152;2024-03-25T05:01:58;6.97;;;2.77;;
24801;SDS011;12898;50.520;12.152;2024-03-25T05:04:24;5.33;;;2.90;;
24801;SDS011;12898;50.520;12.152;2024-03-25T05:06:50;10.80;;;3.80;;
24801;SDS011;12898;50.520;12.152;2024-03-25T05:09:16;6.47;;;2.73;;
24801;SDS011;12898;50.520;12.152;2024-03-25T05:11:42;5.37;;;2.57;;
24801;SDS011;12898;50.520;12.152;2024-03-25T05:14:08;7.27;;;2.97;;
24801;SDS011;12898;50.520;12.152;2024-03-25T05:16:34;5.50;;;2.83;;
24801;SDS011;12898;50.520;12.152;2024-03-25T05:18:59;9.10;;;3.10;;
24801;SDS011;12898;50.520;12.152;2024-03-25T05:21:25;8.03;;;2.90;;
24801;SDS011;12898;50.520;12.152;2024-03-25T05:23:51;6.87;;;3.07;;
24801;SDS011;12898;50.520;12.152;2024-03-25T05:26:17;10.77;;;2.67;;
24801;SDS011;12898;50.520;12.152;2024-03-25T05:28:42;7.53;;;2.80;;
24801;SDS011;12898;50.520;12.152;2024-03-25T05:31:08;5.80;;;2.50;;
24801;SDS011;12898;50.520;12.152;2024-03-25T05:33:34;8.83;;;3.03;;
24801;SDS011;12898;50.520;12.152;2024-03-25T05:36:01;5.07;;;2.70;;
24801;SDS011;12898;50.520;12.152;2024-03-25T05:38:27;5.43;;;2.40;;
24801;SDS011;12898;50.520;12.152;2024-03-25T05:40:53;5.20;;;2.87;;
24801;SDS011;12898;50.520;12.152;2024-03-25T05:43:20;6.30;;;2.53;;
24801;SDS011;12898;50.520;12.152;2024-03-25T05:45:52;5.13;;;2.17;;
24801;SDS011;12898;50.520;12.152;2024-03-25T05:48:19;6.80;;;2.47;;
24801;SDS011;12898;50.520;12.152;2024-03-25T05:50:45;5.77;;;2.60;;
24801;SDS011;12898;50.520;12.152;2024-03-25T05:53:11;8.40;;;3.37;;
24801;SDS011;12898;50.520;12.152;2024-03-25T05:55:37;7.87;;;2.33;;
24801;SDS011;12898;50.520;12.152;2024-03-25T05:58:03;6.77;;;2.27;;
24801;SDS011;12898;50.520;12.152;2024-03-25T06:00:29;4.83;;;2.50;;
24801;SDS011;12898;50.520;12.152;2024-03-25T06:02:56;5.10;;;2.23;;
24801;SDS011;12898;50.520;12.152;2024-03-25T06:05:22;3.93;;;2.20;;
24801;SDS011;12898;50.520;12.152;2024-03-25T06:07:48;8.73;;;2.63;;
24801;SDS011;12898;50.520;12.152;2024-03-25T06:10:14;7.43;;;2.80;;
24801;SDS011;12898;50.520;12.152;2024-03-25T06:12:39;4.93;;;2.33;;
24801;SDS011;12898;50.520;12.152;2024-03-25T06:15:06;5.97;;;2.63;;
24801;SDS011;12898;50.520;12.152;2024-03-25T06:17:32;7.47;;;2.47;;
24801;SDS011;12898;50.520;12.152;2024-03-25T06:19:58;5.27;;;2.60;;
24801;SDS011;12898;50.520;12.152;2024-03-25T06:22:23;6.90;;;2.57;;
24801;SDS011;12898;50.520;12.152;2024-03-25T06:24:49;6.93;;;2.53;;
24801;SDS011;12898;50.520;12.152;2024-03-25T06:27:15;7.93;;;3.03;;
24801;SDS011;12898;50.520;12.152;2024-03-25T06:29:41;8.90;;;2.90;;
24801;SDS011;12898;50.520;12.152;2024-03-25T06:32:08;6.77;;;2.67;;
24801;SDS011;12898;50.520;12.152;2024-03-25T06:34:52;7.13;;;3.30;;
24801;SDS011;12898;50.520;12.152;2024-03-25T06:37:18;8.27;;;2.77;;
24801;SDS011;12898;50.520;12.152;2024-03-25T06:39:44;8.23;;;3.13;;
24801;SDS011;12898;50.520;12.152;2024-03-25T06:42:10;10.03;;;3.10;;
24801;SDS011;12898;50.520;12.152;2024-03-25T06:44:35;5.27;;;2.53;;
24801;SDS011;12898;50.520;12.152;2024-03-25T06:47:01;8.80;;;2.97;;
24801;SDS011;12898;50.520;12.152;2024-03-25T06:49:27;7.90;;;3.03;;
24801;SDS011;12898;50.520;12.152;2024-03-25T06:51:53;8.53;;;3.43;;
24801;SDS011;12898;50.520;12.152;2024-03-25T06:54:19;5.20;;;2.30;;
24801;SDS011;12898;50.520;12.152;2024-03-25T06:56:45;7.37;;;2.80;;
24801;SDS011;12898;50.520;12.152;2024-03-25T06:59:10;7.03;;;2.70;;
24801;SDS011;12898;50.520;12.152;2024-03-25T07:01:36;8.57;;;2.87;;
24801;SDS011;12898;50.520;12.152;2024-03-25T07:04:02;13.80;;;3.50;;
24801;SDS011;12898;50.520;12.152;2024-03-25T07:06:28;4.60;;;2.60;;
24801;SDS011;12898;50.520;12.152;2024-03-25T07:08:54;7.30;;;2.90;;
24801;SDS011;12898;50.520;12.152;2024-03-25T07:11:20;5.67;;;2.63;;
24801;SDS011;12898;50.520;12.152;2024-03-25T07:13:45;7.10;;;2.63;;
24801;SDS011;12898;50.520;12.152;2024-03-25T07:16:12;5.27;;;2.30;;
24801;SDS011;12898;50.520;12.152;2024-03-25T07:18:37;6.23;;;2.70;;
24801;SDS011;12898;50.520;12.152;2024-03-25T07:21:03;5.97;;;2.30;;
24801;SDS011;12898;50.520;12.152;2024-03-25T07:23:29;7.70;;;2.70;;
24801;SDS011;12898;50.520;12.152;2024-03-25T07:25:55;6.13;;;2.60;;
24801;SDS011;12898;50.520;12.152;2024-03-25T07:28:20;5.60;;;2.57;;
24801;SDS011;12898;50.520;12.152;2024-03-25T07:30:46;6.80;;;2.57;;
24801;SDS011;12898;50.520;12.152;2024-03-25T07:33:15;6.67;;;2.60;;
24801;SDS011;12898;50.520;12.152;2024-03-25T07:35:40;7.50;;;3.07;;
24801;SDS011;12898;50.520;12.152;2024-03-25T07:38:06;4.40;;;2.30;;
24801;SDS011;12898;50.520;12.152;2024-03-25T07:40:32;6.13;;;2.50;;
24801;SDS011;12898;50.520;12.152;2024-03-25T07:42:58;11.83;;;2.60;;
24801;SDS011;12898;50.520;12.152;2024-03-25T07:45:24;5.03;;;2.20;;
24801;SDS011;12898;50.520;12.152;2024-03-25T07:47:49;7.10;;;2.37;;
24801;SDS011;12898;50.520;12.152;2024-03-25T07:50:15;6.27;;;2.50;;
24801;SDS011;12898;50.520;12.152;2024-03-25T07:52:41;5.47;;;2.30;;
24801;SDS011;12898;50.520;12.152;2024-03-25T07:55:07;4.20;;;2.20;;
24801;SDS011;12898;50.520;12.152;2024-03-25T07:57:34;4.37;;;2.13;;
24801;SDS011;12898;50.520;12.152;2024-03-25T08:00:00;5.90;;;2.20;;
24801;SDS011;12898;50.520;12.152;2024-03-25T08:02:26;8.50;;;2.53;;
24801;SDS011;12898;50.520;12.152;2024-03-25T08:04:52;6.07;;;2.27;;
24801;SDS011;12898;50.520;12.152;2024-03-25T08:07:17;3.17;;;1.75;;
24801;SDS011;12898;50.520;12.152;2024-03-25T08:09:43;4.97;;;2.00;;
24801;SDS011;12898;50.520;12.152;2024-03-25T08:12:09;3.40;;;1.90;;
24801;SDS011;12898;50.520;12.152;2024-03-25T08:14:34;4.78;;;1.83;;
24801;SDS011;12898;50.520;12.152;2024-03-25T08:17:00;4.47;;;2.00;;
24801;SDS011;12898;50.520;12.152;2024-03-25T08:19:27;5.13;;;2.00;;
24801;SDS011;12898;50.520;12.152;2024-03-25T08:21:53;7.65;;;2.50;;
24801;SDS011;12898;50.520;12.152;2024-03-25T08:24:19;5.47;;;1.70;;
24801;SDS011;12898;50.520;12.152;2024-03-25T08:26:44;7.15;;;2.05;;
24801;SDS011;12898;50.520;12.152;2024-03-25T08:29:10;5.50;;;1.70;;
24801;SDS011;12898;50.520;12.152;2024-03-25T08:31:36;4.73;;;1.57;;
24801;SDS011;12898;50.520;12.152;2024-03-25T08:34:02;3.80;;;1.50;;
24801;SDS011;12898;50.520;12.152;2024-03-25T08:36:27;4.00;;;1.60;;
24801;SDS011;12898;50.520;12.152;2024-03-25T08:38:53;5.03;;;1.90;;
24801;SDS011;12898;50.520;12.152;2024-03-25T08:41:19;5.33;;;1.70;;
24801;SDS011;12898;50.520;12.152;2024-03-25T08:43:44;2.80;;;1.60;;
24801;SDS011;12898;50.520;12.152;2024-03-25T08:46:10;1.83;;;1.30;;
24801;SDS011;12898;50.520;12.152;2024-03-25T08:48:36;4.15;;;1.20;;
24801;SDS011;12898;50.520;12.152;2024-03-25T08:51:01;2.13;;;1.13;;
24801;SDS011;12898;50.520;12.152;2024-03-25T08:53:28;3.90;;;1.40;;
24801;SDS011;12898;50.520;12.152;2024-03-25T08:55:54;1.90;;;1.15;;
24801;SDS011;12898;50.520;12.152;2024-03-25T08:58:20;2.63;;;1.10;;
24801;SDS011;12898;50.520;12.152;2024-03-25T09:00:46;1.90;;;1.33;;
24801;SDS011;12898;50.520;12.152;2024-03-25T09:03:11;3.67;;;1.20;;
24801;SDS011;12898;50.520;12.152;2024-03-25T09:05:38;2.60;;;1.20;;
24801;SDS011;12898;50.520;12.152;2024-03-25T09:08:04;5.32;;;1.58;;
24801;SDS011;12898;50.520;12.152;2024-03-25T09:10:31;3.28;;;1.63;;
24801;SDS011;12898;50.520;12.152;2024-03-25T09:13:15;2.25;;;1.45;;
24801;SDS011;12898;50.520;12.152;2024-03-25T09:15:41;3.83;;;1.45;;
24801;SDS011;12898;50.520;12.152;2024-03-25T09:18:07;1.95;;;1.40;;
24801;SDS011;12898;50.520;12.152;2024-03-25T09:20:32;2.97;;;1.10;;
24801;SDS011;12898;50.520;12.152;2024-03-25T09:22:58;2.55;;;1.17;;
24801;SDS011;12898;50.520;12.152;2024-03-25T09:25:24;4.53;;;1.23;;
24801;SDS011;12898;50.520;12.152;2024-03-25T09:27:50;3.63;;;0.88;;
24801;SDS011;12898;50.520;12.152;2024-03-25T09:30:16;2.97;;;1.15;;
24801;SDS011;12898;50.520;12.152;2024-03-25T09:32:45;2.22;;;1.05;;
24801;SDS011;12898;50.520;12.152;2024-03-25T09:35:11;4.32;;;1.65;;
24801;SDS011;12898;50.520;12.152;2024-03-25T09:37:37;5.07;;;1.30;;
24801;SDS011;12898;50.520;12.152;2024-03-25T09:40:04;3.92;;;1.48;;
24801;SDS011;12898;50.520;12.152;2024-03-25T09:42:34;4.75;;;1.42;;
24801;SDS011;12898;50.520;12.152;2024-03-25T09:45:12;4.70;;;1.30;;
24801;SDS011;12898;50.520;12.152;2024-03-25T09:47:43;2.70;;;1.20;;
24801;SDS011;12898;50.520;12.152;2024-03-25T09:50:14;3.20;;;1.00;;
24801;SDS011;12898;50.520;12.152;2024-03-25T09:52:45;4.13;;;1.52;;
24801;SDS011;12898;50.520;12.152;2024-03-25T09:55:14;4.47;;;1.50;;
24801;SDS011;12898;50.520;12.152;2024-03-25T09:57:41;1.73;;;0.90;;
24801;SDS011;12898;50.520;12.152;2024-03-25T10:00:08;5.57;;;1.43;;
24801;SDS011;12898;50.520;12.152;2024-03-25T10:02:36;2.42;;;1.00;;
24801;SDS011;12898;50.520;12.152;2024-03-25T10:05:04;3.28;;;1.10;;
24801;SDS011;12898;50.520;12.152;2024-03-25T10:07:30;6.40;;;1.40;;
24801;SDS011;12898;50.520;12.152;2024-03-25T10:09:56;3.78;;;1.20;;
24801;SDS011;12898;50.520;12.152;2024-03-25T10:12:23;2.87;;;1.20;;
24801;SDS011;12898;50.520;12.152;2024-03-25T10:14:49;8.07;;;1.83;;
24801;SDS011;12898;50.520;12.152;2024-03-25T10:17:15;5.63;;;1.58;;
24801;SDS011;12898;50.520;12.152;2024-03-25T10:19:41;6.03;;;1.85;;
24801;SDS011;12898;50.520;12.152;2024-03-25T10:22:07;3.42;;;1.40;;
24801;SDS011;12898;50.520;12.152;2024-03-25T10:24:37;5.65;;;1.58;;
24801;SDS011;12898;50.520;12.152;2024-03-25T10:27:25;6.78;;;1.88;;
24801;SDS011;12898;50.520;12.152;2024-03-25T10:29:54;3.92;;;1.40;;
24801;SDS011;12898;50.520;12.152;2024-03-25T10:32:20;3.25;;;1.00;;
24801;SDS011;12898;50.520;12.152;2024-03-25T10:34:49;2.97;;;0.93;;
24801;SDS011;12898;50.520;12.152;2024-03-25T10:37:16;4.25;;;1.30;;
24801;SDS011;12898;50.520;12.152;2024-03-25T10:39:43;2.17;;;0.90;;
24801;SDS011;12898;50.520;12.152;2024-03-25T10:42:13;3.03;;;1.02;;
24801;SDS011;12898;50.520;12.152;2024-03-25T10:44:43;2.92;;;1.00;;
24801;SDS011;12898;50.520;12.152;2024-03-25T10:47:09;2.28;;;1.20;;
24801;SDS011;12898;50.520;12.152;2024-03-25T10:49:53;2.08;;;1.23;;
24801;SDS011;12898;50.520;12.152;2024-03-25T10:52:23;1.60;;;1.00;;
24801;SDS011;12898;50.520;12.152;2024-03-25T10:54:51;2.65;;;1.10;;
24801;SDS011;12898;50.520;12.152;2024-03-25T10:57:19;2.15;;;0.90;;
24801;SDS011;12898;50.520;12.152;2024-03-25T10:59:45;1.98;;;0.80;;
24801;SDS011;12898;50.520;12.152;2024-03-25T11:02:11;3.97;;;1.20;;
24801;SDS011;12898;50.520;12.152;2024-03-25T11:04:38;3.50;;;1.15;;
24801;SDS011;12898;50.520;12.152;2024-03-25T11:07:09;7.18;;;1.08;;
24801;SDS011;12898;50.520;12.152;2024-03-25T11:09:35;3.13;;;1.20;;
24801;SDS011;12898;50.520;12.152;2024-03-25T11:12:02;3.63;;;1.52;;
24801;SDS011;12898;50.520;12.152;2024-03-25T11:14:28;2.97;;;1.10;;
24801;SDS011;12898;50.520;12.152;2024-03-25T11:16:57;2.85;;;1.40;;
24801;SDS011;12898;50.520;12.152;2024-03-25T11:19:28;2.85;;;1.42;;
24801;SDS011;12898;50.520;12.152;2024-03-25T11:22:05;2.05;;;1.17;;
24801;SDS011;12898;50.520;12.152;2024-03-25T11:24:36;3.33;;;1.52;;
24801;SDS011;12898;50.520;12.152;2024-03-25T11:27:02;4.15;;;1.55;;
24801;SDS011;12898;50.520;12.152;2024-03-25T11:29:31;3.50;;;1.30;;
24801;SDS011;12898;50.520;12.152;2024-03-25T11:31:58;3.63;;;1.08;;
24801;SDS011;12898;50.520;12.152;2024-03-25T11:34:29;1.83;;;1.20;;
24801;SDS011;12898;50.520;12.152;2024-03-25T11:36:55;1.98;;;1.42;;
24801;SDS011;12898;50.520;12.152;2024-03-25T11:39:22;4.45;;;1.50;;
24801;SDS011;12898;50.520;12.152;2024-03-25T11:41:51;3.78;;;1.42;;
24801;SDS011;12898;50.520;12.152;2024-03-25T11:44:17;3.13;;;1.30;;
24801;SDS011;12898;50.520;12.152;2024-03-25T11:46:43;4.97;;;1.70;;
24801;SDS011;12898;50.520;12.152;2024-03-25T11:49:14;3.65;;;1.48;;
24801;SDS011;12898;50.520;12.152;2024-03-25T11:51:43;3.42;;;1.70;;
24801;SDS011;12898;50.520;12.152;2024-03-25T11:54:11;3.38;;;1.42;;
24801;SDS011;12898;50.520;12.152;2024-03-25T11:56:37;4.10;;;1.55;;
24801;SDS011;12898;50.520;12.152;2024-03-25T11:59:03;6.00;;;1.75;;
24801;SDS011;12898;50.520;12.152;2024-03-25T12:01:29;2.85;;;1.40;;
24801;SDS011;12898;50.520;12.152;2024-03-25T12:04:17;4.22;;;1.73;;
24801;SDS011;12898;50.520;12.152;2024-03-25T12:06:44;2.50;;;1.40;;
24801;SDS011;12898;50.520;12.152;2024-03-25T12:09:10;4.72;;;1.77;;
24801;SDS011;12898;50.520;12.152;2024-03-25T12:11:55;4.18;;;1.60;;
24801;SDS011;12898;50.520;12.152;2024-03-25T12:14:21;5.30;;;1.80;;
24801;SDS011;12898;50.520;12.152;2024-03-25T12:16:48;6.32;;;1.90;;
24801;SDS011;12898;50.520;12.152;2024-03-25T12:19:15;6.95;;;2.78;;
24801;SDS011;12898;50.520;12.152;2024-03-25T12:21:43;4.63;;;2.00;;
24801;SDS011;12898;50.520;12.152;2024-03-25T12:24:09;4.60;;;1.58;;
24801;SDS011;12898;50.520;12.152;2024-03-25T12:26:36;3.33;;;1.48;;
24801;SDS011;12898;50.520;12.152;2024-03-25T12:29:02;3.88;;;1.58;;
24801;SDS011;12898;50.520;12.152;2024-03-25T12:31:29;6.25;;;2.15;;
24801;SDS011;12898;50.520;12.152;2024-03-25T12:33:55;5.43;;;1.80;;
24801;SDS011;12898;50.520;12.152;2024-03-25T12:36:21;3.47;;;1.55;;
24801;SDS011;12898;50.520;12.152;2024-03-25T12:38:53;2.95;;;1.40;;
24801;SDS011;12898;50.520;12.152;2024-03-25T12:41:23;4.32;;;1.45;;
24801;SDS011;12898;50.520;12.152;2024-03-25T12:43:49;2.15;;;1.30;;
24801;SDS011;12898;50.520;12.152;2024-03-25T12:46:16;2.33;;;1.23;;
24801;SDS011;12898;50.520;12.152;2024-03-25T12:48:42;3.70;;;1.30;;
24801;SDS011;12898;50.520;12.152;2024-03-25T12:51:14;1.88;;;1.00;;
24801;SDS011;12898;50.520;12.152;2024-03-25T12:53:40;2.13;;;1.30;;
24801;SDS011;12898;50.520;12.152;2024-03-25T12:56:06;3.90;;;1.10;;
24801;SDS011;12898;50.520;12.152;2024-03-25T12:58:33;1.92;;;1.17;;
24801;SDS011;12898;50.520;12.152;2024-03-25T13:00:59;5.28;;;1.63;;
24801;SDS011;12898;50.520;12.152;2024-03-25T13:03:24;3.83;;;1.38;;
24801;SDS011;12898;50.520;12.152;2024-03-25T13:05:50;3.65;;;1.50;;
24801;SDS011;12898;50.520;12.152;2024-03-25T13:08:16;4.78;;;1.20;;
24801;SDS011;12898;50.520;12.152;2024-03-25T13:10:42;2.88;;;1.10;;
24801;SDS011;12898;50.520;12.152;2024-03-25T13:13:08;4.00;;;1.38;;
24801;SDS011;12898;50.520;12.152;2024-03-25T13:15:34;5.55;;;1.35;;
24801;SDS011;12898;50.520;12.152;2024-03-25T13:18:00;4.43;;;1.58;;
24801;SDS011;12898;50.520;12.152;2024-03-25T13:20:26;4.70;;;1.42;;
24801;SDS011;12898;50.520;12.152;2024-03-25T13:22:53;3.15;;;1.52;;
24801;SDS011;12898;50.520;12.152;2024-03-25T13:25:24;3.53;;;1.20;;
24801;SDS011;12898;50.520;12.152;2024-03-25T13:27:50;1.20;;;0.95;;
24801;SDS011;12898;50.520;12.152;2024-03-25T13:30:16;3.22;;;1.40;;
24801;SDS011;12898;50.520;12.152;2024-03-25T13:32:41;2.92;;;1.30;;
24801;SDS011;12898;50.520;12.152;2024-03-25T13:35:07;4.00;;;1.35;;
24801;SDS011;12898;50.520;12.152;2024-03-25T13:37:33;3.33;;;1.20;;
24801;SDS011;12898;50.520;12.152;2024-03-25T13:39:59;6.05;;;1.95;;
24801;SDS011;12898;50.520;12.152;2024-03-25T13:42:24;2.58;;;1.13;;
24801;SDS011;12898;50.520;12.152;2024-03-25T13:44:50;4.97;;;1.67;;
24801;SDS011;12898;50.520;12.152;2024-03-25T13:47:16;4.80;;;1.77;;
24801;SDS011;12898;50.520;12.152;2024-03-25T13:49:42;2.38;;;1.30;;
24801;SDS011;12898;50.520;12.152;2024-03-25T13:52:07;2.55;;;1.10;;
24801;SDS011;12898;50.520;12.152;2024-03-25T13:54:33;3.95;;;1.20;;
24801;SDS011;12898;50.520;12.152;2024-03-25T13:56:59;3.10;;;1.50;;
24801;SDS011;12898;50.520;12.152;2024-03-25T13:59:25;3.60;;;1.40;;
24801;SDS011;12898;50.520;12.152;2024-03-25T14:01:51;3.75;;;1.17;;
24801;SDS011;12898;50.520;12.152;2024-03-25T14:04:18;4.38;;;1.40;;
24801;SDS011;12898;50.520;12.152;2024-03-25T14:06:45;4.88;;;1.80;;
24801;SDS011;12898;50.520;12.152;2024-03-25T14:09:13;5.13;;;1.92;;
24801;SDS011;12898;50.520;12.152;2024-03-25T14:11:51;4.35;;;1.33;;
24801;SDS011;12898;50.520;12.152;2024-03-25T14:14:17;4.93;;;1.30;;
24801;SDS011;12898;50.520;12.152;2024-03-25T14:16:43;4.95;;;1.40;;
24801;SDS011;12898;50.520;12.152;2024-03-25T14:19:09;3.63;;;1.30;;
24801;SDS011;12898;50.520;12.152;2024-03-25T14:21:35;4.65;;;1.40;;
24801;SDS011;12898;50.520;12.152;2024-03-25T14:24:00;6.20;;;1.67;;
24801;SDS011;12898;50.520;12.152;2024-03-25T14:26:26;5.63;;;1.85;;
24801;SDS011;12898;50.520;12.152;2024-03-25T14:28:52;5.20;;;1.60;;
24801;SDS011;12898;50.520;12.152;2024-03-25T14:31:18;4.35;;;1.55;;